createdAt,value
2019-04-28T00:01:06.472Z,4.45
2019-04-28T00:02:13.303Z,3.47
2019-04-28T00:03:18.292Z,3.90
2019-04-28T00:04:23.711Z,3.95
2019-04-28T00:05:28.609Z,4.00
2019-04-28T00:06:34.154Z,4.28
2019-04-28T00:07:41.092Z,4.97
2019-04-28T00:08:46.157Z,4.35
2019-04-28T00:09:51.482Z,4.72
2019-04-28T00:10:57.076Z,4.78
2019-04-28T00:12:02.467Z,6.25
2019-04-28T00:13:07.714Z,5.37
2019-04-28T00:14:17.151Z,4.22
2019-04-28T00:15:22.284Z,4.65
2019-04-28T00:16:27.443Z,4.62
2019-04-28T00:17:32.985Z,4.53
2019-04-28T00:18:38.494Z,3.83
2019-04-28T00:19:43.628Z,4.30
2019-04-28T00:21:16.637Z,6.25
2019-04-28T00:22:43.279Z,4.40
2019-04-28T00:24:16.317Z,3.37
2019-04-28T00:25:24.750Z,3.87
2019-04-28T00:26:43.013Z,4.35
2019-04-28T00:27:48.103Z,4.00
2019-04-28T00:28:53.515Z,4.62
2019-04-28T00:29:58.797Z,6.12
2019-04-28T00:31:04.201Z,4.37
2019-04-28T00:32:13.260Z,3.95
2019-04-28T00:33:18.523Z,3.77
2019-04-28T00:34:23.829Z,4.70
2019-04-28T00:35:28.886Z,3.35
2019-04-28T00:36:34.146Z,4.30
2019-04-28T00:37:41.788Z,4.22
2019-04-28T00:38:46.769Z,3.75
2019-04-28T00:39:52.255Z,4.00
2019-04-28T00:40:57.710Z,5.00
2019-04-28T00:42:03.322Z,3.80
2019-04-28T00:43:10.380Z,3.90
2019-04-28T00:44:16.323Z,4.05
2019-04-28T00:45:21.580Z,6.55
2019-04-28T00:46:31.285Z,4.70
2019-04-28T00:47:36.558Z,4.47
2019-04-28T00:48:41.616Z,4.92
2019-04-28T00:49:46.733Z,4.42
2019-04-28T00:50:51.973Z,3.70
2019-04-28T00:51:57.722Z,3.98
2019-04-28T00:53:02.824Z,3.70
2019-04-28T00:54:07.890Z,4.00
2019-04-28T00:55:13.188Z,4.35
2019-04-28T00:56:18.198Z,5.20
2019-04-28T00:57:23.814Z,4.50
2019-04-28T00:58:28.982Z,5.70
2019-04-28T00:59:34.041Z,4.45
2019-04-28T01:00:41.467Z,5.30
2019-04-28T01:01:56.045Z,4.53
2019-04-28T01:03:02.162Z,4.95
2019-04-28T01:04:07.560Z,5.60
2019-04-28T01:05:12.808Z,4.80
2019-04-28T01:06:17.945Z,4.83
2019-04-28T01:07:23.064Z,3.58
2019-04-28T01:08:28.403Z,4.50
2019-04-28T01:09:33.565Z,6.58
2019-04-28T01:10:38.691Z,4.00
2019-04-28T01:11:43.776Z,5.62
2019-04-28T01:12:50.869Z,4.55
2019-04-28T01:13:55.639Z,6.15
2019-04-28T01:15:04.539Z,4.85
2019-04-28T01:16:13.960Z,4.47
2019-04-28T01:17:50.252Z,4.90
2019-04-28T01:19:00.157Z,3.80
2019-04-28T01:20:06.948Z,3.55
2019-04-28T01:21:12.057Z,3.80
2019-04-28T01:22:20.147Z,4.17
2019-04-28T01:23:25.176Z,4.40
2019-04-28T01:24:30.268Z,3.95
2019-04-28T01:25:35.553Z,4.05
2019-04-28T01:26:41.653Z,4.00
2019-04-28T01:27:50.785Z,4.20
2019-04-28T01:28:55.856Z,4.42
2019-04-28T01:30:07.997Z,4.65
2019-04-28T01:31:34.797Z,4.15
2019-04-28T01:32:45.652Z,4.92
2019-04-28T01:34:10.313Z,4.95
2019-04-28T01:35:15.618Z,5.20
2019-04-28T01:36:20.744Z,4.95
2019-04-28T01:37:26.110Z,5.03
2019-04-28T01:38:31.299Z,4.40
2019-04-28T01:39:36.393Z,4.28
2019-04-28T01:40:41.598Z,5.55
2019-04-28T01:41:46.571Z,4.70
2019-04-28T01:42:51.573Z,4.50
2019-04-28T01:43:56.729Z,4.33
2019-04-28T01:45:02.015Z,4.33
2019-04-28T01:46:07.055Z,3.95
2019-04-28T01:47:12.246Z,4.72
2019-04-28T01:48:17.521Z,4.20
2019-04-28T01:49:23.122Z,4.35
2019-04-28T01:50:29.950Z,3.83
2019-04-28T01:51:36.221Z,3.83
2019-04-28T01:52:41.327Z,5.17
2019-04-28T01:53:46.745Z,3.80
2019-04-28T01:54:51.801Z,4.95
2019-04-28T01:55:57.142Z,4.17
2019-04-28T01:57:02.327Z,4.60
2019-04-28T01:58:07.332Z,4.40
2019-04-28T01:59:12.377Z,3.98
2019-04-28T02:00:25.156Z,4.08
2019-04-28T02:01:25.874Z,4.20
2019-04-28T02:02:30.999Z,5.92
2019-04-28T02:03:36.045Z,4.30
2019-04-28T02:04:41.133Z,3.40
2019-04-28T02:05:46.383Z,3.62
2019-04-28T02:06:52.929Z,3.10
2019-04-28T02:07:58.087Z,3.98
2019-04-28T02:09:03.125Z,4.85
2019-04-28T02:10:10.156Z,3.25
2019-04-28T02:11:15.050Z,3.75
2019-04-28T02:12:20.425Z,4.10
2019-04-28T02:13:25.551Z,5.37
2019-04-28T02:14:30.951Z,5.40
2019-04-28T02:15:36.509Z,3.37
2019-04-28T02:16:41.562Z,3.50
2019-04-28T02:17:46.665Z,3.20
2019-04-28T02:18:51.922Z,3.90
2019-04-28T02:19:57.130Z,4.00
2019-04-28T02:21:27.390Z,4.00
2019-04-28T02:22:37.309Z,4.17
2019-04-28T02:23:42.358Z,3.58
2019-04-28T02:24:47.326Z,4.30
2019-04-28T02:25:52.336Z,3.72
2019-04-28T02:26:57.631Z,4.10
2019-04-28T02:28:02.750Z,3.75
2019-04-28T02:29:07.990Z,3.80
2019-04-28T02:30:13.267Z,3.60
2019-04-28T02:31:21.516Z,4.12
2019-04-28T02:32:25.236Z,4.45
2019-04-28T02:33:31.269Z,4.15
2019-04-28T02:34:36.537Z,3.77
2019-04-28T02:35:42.250Z,3.50
2019-04-28T02:36:47.450Z,4.65
2019-04-28T02:37:52.780Z,3.60
2019-04-28T02:38:57.793Z,4.35
2019-04-28T02:40:03.490Z,3.90
2019-04-28T02:41:11.078Z,3.72
2019-04-28T02:42:15.653Z,5.20
2019-04-28T02:43:21.109Z,3.62
2019-04-28T02:44:30.691Z,3.40
2019-04-28T02:45:36.221Z,5.75
2019-04-28T02:46:42.205Z,3.45
2019-04-28T02:47:47.561Z,3.90
2019-04-28T02:48:54.014Z,4.05
2019-04-28T02:50:04.568Z,4.25
2019-04-28T02:51:17.101Z,4.60
2019-04-28T02:52:41.472Z,4.50
2019-04-28T02:53:51.143Z,4.42
2019-04-28T02:54:55.650Z,4.25
2019-04-28T02:56:01.106Z,3.12
2019-04-28T02:57:06.245Z,3.72
2019-04-28T02:58:13.363Z,5.90
2019-04-28T02:59:20.891Z,4.80
2019-04-28T03:00:25.320Z,5.15
2019-04-28T03:01:30.952Z,4.58
2019-04-28T03:02:36.411Z,4.10
2019-04-28T03:03:41.491Z,4.10
2019-04-28T03:04:47.078Z,4.40
2019-04-28T03:05:52.167Z,4.80
2019-04-28T03:06:57.609Z,3.85
2019-04-28T03:08:03.017Z,4.80
2019-04-28T03:09:10.589Z,4.15
2019-04-28T03:10:15.179Z,3.50
2019-04-28T03:11:20.585Z,3.20
2019-04-28T03:12:26.253Z,4.05
2019-04-28T03:13:31.501Z,3.45
2019-04-28T03:14:36.522Z,3.30
2019-04-28T03:15:42.072Z,2.95
2019-04-28T03:16:47.341Z,4.50
2019-04-28T03:17:53.202Z,4.42
2019-04-28T03:19:01.123Z,4.28
2019-04-28T03:20:05.921Z,3.60
2019-04-28T03:21:11.530Z,3.80
2019-04-28T03:22:16.975Z,2.60
2019-04-28T03:23:22.096Z,3.52
2019-04-28T03:24:27.360Z,3.58
2019-04-28T03:26:11.165Z,3.40
2019-04-28T03:27:26.164Z,4.00
2019-04-28T03:28:51.402Z,4.25
2019-04-28T03:30:00.905Z,3.37
2019-04-28T03:32:07.279Z,4.50
2019-04-28T03:32:52.511Z,4.50
2019-04-28T03:33:53.767Z,3.42
2019-04-28T03:34:55.043Z,4.15
2019-04-28T03:36:07.892Z,4.15
2019-04-28T03:37:11.289Z,3.37
2019-04-28T03:38:16.639Z,3.15
2019-04-28T03:39:21.832Z,3.80
2019-04-28T03:40:26.988Z,4.30
2019-04-28T03:41:32.145Z,3.75
2019-04-28T03:42:37.234Z,3.30
2019-04-28T03:43:42.616Z,3.62
2019-04-28T03:44:47.746Z,5.05
2019-04-28T03:46:02.696Z,4.45
2019-04-28T03:47:04.803Z,4.53
2019-04-28T03:48:11.439Z,3.50
2019-04-28T03:49:31.957Z,3.70
2019-04-28T03:50:36.978Z,3.30
2019-04-28T03:51:42.262Z,4.17
2019-04-28T03:52:47.279Z,3.60
2019-04-28T03:53:52.230Z,4.53
2019-04-28T03:54:57.278Z,4.33
2019-04-28T03:56:02.304Z,3.55
2019-04-28T03:57:07.460Z,4.40
2019-04-28T03:58:12.736Z,3.85
2019-04-28T03:59:17.968Z,4.60
2019-04-28T04:00:22.943Z,3.08
2019-04-28T04:01:30.324Z,4.08
2019-04-28T04:02:35.020Z,4.72
2019-04-28T04:03:41.682Z,4.05
2019-04-28T04:04:46.820Z,4.25
2019-04-28T04:05:51.899Z,3.87
2019-04-28T04:06:57.061Z,4.17
2019-04-28T04:08:02.108Z,3.90
2019-04-28T04:09:07.409Z,2.85
2019-04-28T04:10:40.352Z,4.30
2019-04-28T04:12:00.386Z,4.55
2019-04-28T04:13:14.925Z,4.60
2019-04-28T04:14:51.061Z,4.08
2019-04-28T04:16:04.316Z,3.35
2019-04-28T04:17:16.260Z,6.78
2019-04-28T04:18:41.023Z,8.85
2019-04-28T04:19:46.078Z,10.13
2019-04-28T04:20:51.500Z,13.45
2019-04-28T04:21:56.433Z,14.05
2019-04-28T04:23:02.084Z,13.62
2019-04-28T04:24:07.221Z,12.10
2019-04-28T04:25:12.830Z,12.18
2019-04-28T04:26:20.513Z,11.38
2019-04-28T04:27:25.104Z,11.93
2019-04-28T04:28:30.487Z,10.05
2019-04-28T04:29:35.587Z,9.50
2019-04-28T04:30:41.130Z,11.40
2019-04-28T04:31:46.150Z,7.05
2019-04-28T04:32:51.341Z,5.33
2019-04-28T04:33:56.388Z,4.15
2019-04-28T04:35:01.432Z,3.85
2019-04-28T04:36:06.596Z,4.25
2019-04-28T04:37:12.594Z,3.92
2019-04-28T04:38:17.702Z,4.40
2019-04-28T04:39:23.123Z,4.00
2019-04-28T04:40:31.333Z,3.52
2019-04-28T04:41:35.155Z,3.90
2019-04-28T04:42:40.593Z,3.90
2019-04-28T04:43:45.539Z,3.60
2019-04-28T04:44:50.506Z,3.83
2019-04-28T04:46:16.995Z,4.22
2019-04-28T04:47:22.061Z,4.03
2019-04-28T04:48:27.355Z,3.85
2019-04-28T04:49:32.501Z,4.00
2019-04-28T04:50:37.659Z,3.83
2019-04-28T04:51:43.932Z,3.62
2019-04-28T04:52:50.152Z,3.33
2019-04-28T04:53:55.646Z,3.33
2019-04-28T04:55:01.405Z,4.55
2019-04-28T04:56:06.602Z,4.15
2019-04-28T04:57:11.673Z,3.72
2019-04-28T04:58:16.914Z,3.58
2019-04-28T04:59:22.400Z,3.90
2019-04-28T05:00:43.988Z,3.67
2019-04-28T05:02:02.006Z,3.00
2019-04-28T05:03:11.098Z,3.90
2019-04-28T05:04:31.475Z,3.80
2019-04-28T05:05:40.836Z,5.10
2019-04-28T05:06:45.877Z,4.12
2019-04-28T05:07:51.042Z,4.30
2019-04-28T05:08:56.148Z,4.28
2019-04-28T05:10:01.310Z,3.37
2019-04-28T05:11:06.332Z,4.90
2019-04-28T05:12:11.566Z,3.60
2019-04-28T05:13:16.808Z,4.78
2019-04-28T05:14:21.807Z,4.40
2019-04-28T05:15:26.760Z,4.47
2019-04-28T05:16:31.855Z,3.62
2019-04-28T05:17:36.823Z,3.45
2019-04-28T05:18:41.898Z,3.80
2019-04-28T05:19:47.230Z,3.72
2019-04-28T05:20:52.322Z,3.98
2019-04-28T05:21:57.599Z,4.80
2019-04-28T05:23:09.661Z,3.60
2019-04-28T05:24:46.317Z,3.58
2019-04-28T05:25:49.907Z,4.30
2019-04-28T05:26:54.954Z,3.70
2019-04-28T05:28:02.908Z,4.08
2019-04-28T05:29:06.887Z,4.83
2019-04-28T05:30:13.963Z,3.80
2019-04-28T05:31:23.016Z,3.90
2019-04-28T05:32:39.378Z,3.83
2019-04-28T05:33:34.041Z,3.35
2019-04-28T05:34:46.393Z,4.00
2019-04-28T05:35:46.150Z,3.83
2019-04-28T05:36:51.290Z,3.85
2019-04-28T05:37:56.287Z,4.08
2019-04-28T05:39:01.285Z,4.80
2019-04-28T05:40:06.580Z,4.42
2019-04-28T05:41:11.617Z,4.15
2019-04-28T05:42:16.777Z,3.40
2019-04-28T05:43:22.360Z,4.00
2019-04-28T05:44:27.425Z,3.40
2019-04-28T05:45:32.604Z,4.05
2019-04-28T05:46:37.698Z,3.85
2019-04-28T05:47:43.249Z,3.37
2019-04-28T05:49:11.729Z,3.35
2019-04-28T05:50:23.133Z,3.60
2019-04-28T05:51:29.940Z,4.33
2019-04-28T05:53:00.662Z,3.85
2019-04-28T05:54:13.120Z,3.70
2019-04-28T05:55:21.054Z,5.62
2019-04-28T05:56:31.217Z,6.40
2019-04-28T05:57:40.742Z,5.55
2019-04-28T05:58:51.554Z,5.62
2019-04-28T06:00:03.551Z,5.95
2019-04-28T06:01:36.808Z,7.78
2019-04-28T06:02:54.118Z,7.35
2019-04-28T06:03:51.281Z,7.45
2019-04-28T06:04:56.369Z,6.42
2019-04-28T06:06:01.490Z,7.62
2019-04-28T06:07:14.162Z,7.90
2019-04-28T06:08:28.298Z,8.23
2019-04-28T06:09:39.884Z,6.80
2019-04-28T06:10:45.095Z,7.22
2019-04-28T06:11:50.135Z,7.30
2019-04-28T06:12:55.138Z,5.20
2019-04-28T06:14:00.654Z,5.40
2019-04-28T06:15:06.104Z,5.53
2019-04-28T06:16:11.052Z,4.45
2019-04-28T06:17:16.080Z,4.95
2019-04-28T06:18:21.087Z,4.28
2019-04-28T06:19:26.075Z,3.72
2019-04-28T06:20:31.012Z,3.98
2019-04-28T06:21:36.051Z,4.30
2019-04-28T06:22:41.069Z,4.55
2019-04-28T06:23:46.143Z,4.60
2019-04-28T06:24:51.273Z,3.90
2019-04-28T06:25:56.592Z,4.08
2019-04-28T06:27:01.629Z,4.05
2019-04-28T06:28:06.747Z,5.53
2019-04-28T06:29:11.759Z,4.85
2019-04-28T06:30:17.091Z,5.40
2019-04-28T06:31:23.228Z,5.10
2019-04-28T06:32:28.826Z,4.95
2019-04-28T06:33:34.074Z,5.40
2019-04-28T06:34:39.157Z,4.53
2019-04-28T06:35:44.554Z,5.17
2019-04-28T06:36:52.021Z,4.78
2019-04-28T06:37:57.348Z,7.17
2019-04-28T06:39:03.819Z,6.22
2019-04-28T06:40:09.078Z,6.20
2019-04-28T06:41:14.218Z,6.50
2019-04-28T06:42:19.564Z,7.35
2019-04-28T06:43:25.145Z,5.78
2019-04-28T06:44:30.280Z,6.12
2019-04-28T06:45:35.210Z,6.55
2019-04-28T06:46:40.426Z,4.97
2019-04-28T06:47:45.498Z,5.90
2019-04-28T06:48:50.587Z,5.42
2019-04-28T06:49:55.611Z,6.17
2019-04-28T06:51:00.809Z,5.85
2019-04-28T06:52:05.838Z,5.03
2019-04-28T06:53:10.792Z,5.70
2019-04-28T06:54:15.781Z,6.20
2019-04-28T06:55:21.394Z,5.55
2019-04-28T06:56:26.477Z,5.42
2019-04-28T06:57:31.584Z,5.28
2019-04-28T06:58:36.782Z,4.15
2019-04-28T06:59:42.272Z,4.15
2019-04-28T07:00:47.373Z,4.42
2019-04-28T07:01:52.465Z,4.70
2019-04-28T07:02:57.815Z,3.95
2019-04-28T07:04:03.170Z,3.85
2019-04-28T07:05:08.953Z,4.75
2019-04-28T07:06:14.057Z,4.50
2019-04-28T07:07:19.207Z,4.10
2019-04-28T07:08:24.288Z,4.55
2019-04-28T07:09:29.430Z,4.80
2019-04-28T07:10:34.791Z,5.30
2019-04-28T07:11:40.255Z,7.35
2019-04-28T07:12:45.351Z,6.67
2019-04-28T07:13:50.713Z,9.05
2019-04-28T07:14:55.846Z,9.48
2019-04-28T07:16:01.151Z,8.00
2019-04-28T07:17:06.335Z,8.45
2019-04-28T07:18:11.387Z,7.25
2019-04-28T07:19:16.480Z,7.65
2019-04-28T07:20:49.825Z,7.47
2019-04-28T07:22:19.716Z,6.42
2019-04-28T07:23:24.810Z,5.60
2019-04-28T07:24:29.765Z,5.05
2019-04-28T07:25:34.762Z,5.30
2019-04-28T07:26:39.811Z,6.20
2019-04-28T07:27:44.943Z,5.60
2019-04-28T07:28:49.995Z,4.95
2019-04-28T07:29:55.483Z,4.78
2019-04-28T07:31:01.049Z,4.40
2019-04-28T07:32:06.415Z,4.47
2019-04-28T07:33:11.469Z,4.22
2019-04-28T07:34:16.908Z,3.83
2019-04-28T07:35:22.137Z,4.62
2019-04-28T07:36:27.595Z,5.17
2019-04-28T07:37:32.809Z,4.00
2019-04-28T07:38:38.227Z,4.20
2019-04-28T07:39:43.536Z,5.58
2019-04-28T07:40:48.607Z,4.00
2019-04-28T07:41:53.675Z,5.33
2019-04-28T07:42:58.657Z,6.42
2019-04-28T07:44:03.771Z,5.40
2019-04-28T07:45:09.236Z,5.80
2019-04-28T07:46:14.651Z,5.90
2019-04-28T07:47:20.273Z,5.37
2019-04-28T07:48:25.647Z,5.05
2019-04-28T07:49:30.568Z,4.80
2019-04-28T07:50:35.625Z,4.05
2019-04-28T07:51:54.249Z,4.25
2019-04-28T07:53:05.947Z,3.50
2019-04-28T07:54:11.525Z,4.12
2019-04-28T07:55:16.752Z,3.65
2019-04-28T07:56:22.114Z,4.97
2019-04-28T07:57:31.498Z,4.00
2019-04-28T07:58:36.721Z,3.47
2019-04-28T07:59:41.848Z,4.05
2019-04-28T08:00:48.810Z,3.77
2019-04-28T08:01:54.300Z,3.75
2019-04-28T08:02:59.334Z,3.47
2019-04-28T08:04:04.556Z,3.77
2019-04-28T08:05:10.099Z,5.58
2019-04-28T08:06:15.370Z,4.15
2019-04-28T08:07:20.507Z,4.70
2019-04-28T08:08:25.546Z,5.80
2019-04-28T08:09:30.657Z,4.45
2019-04-28T08:10:35.865Z,3.92
2019-04-28T08:11:41.042Z,4.08
2019-04-28T08:12:46.015Z,3.80
2019-04-28T08:13:51.741Z,4.85
2019-04-28T08:14:56.920Z,3.95
2019-04-28T08:16:02.097Z,5.75
2019-04-28T08:17:07.540Z,4.00
2019-04-28T08:18:12.972Z,4.90
2019-04-28T08:19:18.064Z,4.33
2019-04-28T08:20:23.129Z,5.20
2019-04-28T08:21:28.169Z,4.70
2019-04-28T08:22:33.197Z,6.17
2019-04-28T08:23:47.056Z,4.83
2019-04-28T08:24:45.829Z,5.62
2019-04-28T08:25:50.859Z,4.70
2019-04-28T08:26:55.906Z,4.10
2019-04-28T08:28:01.365Z,3.55
2019-04-28T08:29:06.448Z,4.53
2019-04-28T08:30:11.725Z,4.50
2019-04-28T08:31:18.450Z,4.65
2019-04-28T08:32:38.593Z,4.15
2019-04-28T08:34:02.199Z,3.80
2019-04-28T08:35:00.924Z,4.15
2019-04-28T08:36:06.104Z,4.75
2019-04-28T08:37:11.340Z,3.90
2019-04-28T08:38:16.725Z,4.12
2019-04-28T08:39:25.024Z,5.03
2019-04-28T08:40:28.584Z,4.08
2019-04-28T08:41:33.927Z,3.50
2019-04-28T08:42:39.204Z,3.70
2019-04-28T08:43:44.889Z,4.75
2019-04-28T08:44:49.918Z,4.30
2019-04-28T08:45:55.303Z,3.70
2019-04-28T08:47:00.442Z,5.30
2019-04-28T08:48:05.728Z,5.22
2019-04-28T08:49:10.914Z,3.98
2019-04-28T08:50:16.177Z,4.75
2019-04-28T08:51:21.593Z,4.47
2019-04-28T08:52:26.658Z,4.20
2019-04-28T08:53:31.820Z,3.90
2019-04-28T08:54:36.931Z,4.15
2019-04-28T08:55:42.545Z,5.03
2019-04-28T08:56:47.689Z,4.95
2019-04-28T08:57:52.787Z,4.45
2019-04-28T08:58:57.869Z,4.50
2019-04-28T09:00:03.135Z,4.62
2019-04-28T09:01:08.360Z,4.20
2019-04-28T09:02:13.852Z,4.62
2019-04-28T09:03:18.923Z,5.15
2019-04-28T09:04:24.290Z,4.97
2019-04-28T09:05:29.488Z,3.60
2019-04-28T09:06:34.570Z,5.70
2019-04-28T09:07:39.776Z,4.72
2019-04-28T09:08:44.949Z,3.72
2019-04-28T09:09:50.207Z,2.92
2019-04-28T09:10:55.391Z,3.70
2019-04-28T09:12:00.565Z,3.45
2019-04-28T09:13:05.707Z,3.20
2019-04-28T09:14:11.138Z,4.53
2019-04-28T09:15:16.437Z,3.72
2019-04-28T09:16:21.470Z,4.20
2019-04-28T09:17:26.648Z,4.72
2019-04-28T09:18:31.975Z,4.30
2019-04-28T09:19:37.032Z,4.40
2019-04-28T09:20:42.135Z,4.10
2019-04-28T09:21:47.928Z,4.08
2019-04-28T09:22:53.067Z,3.70
2019-04-28T09:23:58.146Z,4.62
2019-04-28T09:25:03.729Z,4.72
2019-04-28T09:26:09.100Z,4.05
2019-04-28T09:27:14.247Z,4.53
2019-04-28T09:28:19.368Z,4.28
2019-04-28T09:29:24.529Z,4.90
2019-04-28T09:30:30.018Z,4.00
2019-04-28T09:31:35.061Z,3.62
2019-04-28T09:32:40.267Z,4.15
2019-04-28T09:33:45.594Z,3.52
2019-04-28T09:34:51.069Z,3.75
2019-04-28T09:35:56.191Z,3.65
2019-04-28T09:37:01.346Z,3.30
2019-04-28T09:38:06.342Z,3.20
2019-04-28T09:39:13.068Z,3.65
2019-04-28T09:40:18.551Z,3.00
2019-04-28T09:41:23.642Z,3.15
2019-04-28T09:42:56.835Z,2.60
2019-04-28T09:44:11.620Z,2.50
2019-04-28T09:45:22.542Z,2.25
2019-04-28T09:46:30.594Z,2.10
2019-04-28T09:47:35.825Z,2.25
2019-04-28T09:48:41.090Z,2.40
2019-04-28T09:49:46.400Z,1.98
2019-04-28T09:50:51.873Z,2.58
2019-04-28T09:51:56.891Z,2.55
2019-04-28T09:53:01.897Z,2.25
2019-04-28T09:54:07.353Z,2.85
2019-04-28T09:55:12.574Z,3.55
2019-04-28T09:56:17.751Z,2.75
2019-04-28T09:57:22.932Z,2.55
2019-04-28T09:58:28.262Z,2.15
2019-04-28T09:59:33.444Z,2.33
2019-04-28T10:00:40.010Z,2.20
2019-04-28T10:01:45.276Z,2.33
2019-04-28T10:02:50.446Z,2.52
2019-04-28T10:03:55.609Z,2.50
2019-04-28T10:05:00.655Z,3.08
2019-04-28T10:06:06.394Z,3.12
2019-04-28T10:07:11.459Z,3.60
2019-04-28T10:08:16.787Z,3.17
2019-04-28T10:09:21.800Z,2.92
2019-04-28T10:10:27.191Z,2.85
2019-04-28T10:11:32.187Z,3.05
2019-04-28T10:12:37.212Z,2.20
2019-04-28T10:13:42.210Z,2.08
2019-04-28T10:14:47.397Z,1.87
2019-04-28T10:15:52.774Z,2.70
2019-04-28T10:16:57.967Z,2.65
2019-04-28T10:18:03.290Z,2.50
2019-04-28T10:19:08.296Z,2.80
2019-04-28T10:20:13.631Z,2.60
2019-04-28T10:21:19.011Z,1.90
2019-04-28T10:22:24.547Z,2.05
2019-04-28T10:23:29.725Z,2.35
2019-04-28T10:24:34.809Z,2.45
2019-04-28T10:25:39.917Z,2.05
2019-04-28T10:26:45.109Z,3.00
2019-04-28T10:27:50.230Z,3.10
2019-04-28T10:28:55.381Z,3.47
2019-04-28T10:30:00.787Z,2.80
2019-04-28T10:31:08.338Z,3.40
2019-04-28T10:32:13.940Z,3.33
2019-04-28T10:33:19.574Z,3.80
2019-04-28T10:34:24.720Z,3.02
2019-04-28T10:35:30.041Z,3.12
2019-04-28T10:36:36.729Z,2.92
2019-04-28T10:37:41.860Z,3.80
2019-04-28T10:38:48.533Z,4.00
2019-04-28T10:40:11.764Z,3.60
2019-04-28T10:41:23.524Z,4.80
2019-04-28T10:42:28.543Z,4.30
2019-04-28T10:43:33.927Z,4.25
2019-04-28T10:44:41.908Z,4.80
2019-04-28T10:45:48.531Z,4.47
2019-04-28T10:46:53.642Z,4.47
2019-04-28T10:47:59.325Z,5.33
2019-04-28T10:49:04.429Z,4.35
2019-04-28T10:50:09.841Z,4.00
2019-04-28T10:51:15.260Z,5.00
2019-04-28T10:52:20.496Z,4.78
2019-04-28T10:53:28.126Z,4.08
2019-04-28T10:54:33.544Z,4.35
2019-04-28T10:55:38.708Z,4.58
2019-04-28T10:56:44.165Z,4.00
2019-04-28T10:57:49.256Z,3.47
2019-04-28T10:58:57.166Z,3.20
2019-04-28T11:00:02.276Z,3.80
2019-04-28T11:01:07.564Z,2.87
2019-04-28T11:02:12.896Z,3.35
2019-04-28T11:03:17.973Z,3.40
2019-04-28T11:04:41.252Z,2.98
2019-04-28T11:05:46.844Z,2.67
2019-04-28T11:06:51.789Z,2.83
2019-04-28T11:07:57.542Z,2.77
2019-04-28T11:09:30.461Z,2.55
2019-04-28T11:10:28.938Z,2.83
2019-04-28T11:11:37.174Z,2.35
2019-04-28T11:12:42.317Z,2.58
2019-04-28T11:13:47.445Z,2.90
2019-04-28T11:14:52.541Z,2.52
2019-04-28T11:15:58.023Z,2.35
2019-04-28T11:17:03.159Z,2.72
2019-04-28T11:18:09.978Z,2.90
2019-04-28T11:19:15.327Z,2.70
2019-04-28T11:20:20.672Z,2.50
2019-04-28T11:21:25.980Z,2.95
2019-04-28T11:22:31.141Z,3.02
2019-04-28T11:23:36.377Z,2.65
2019-04-28T11:24:41.915Z,2.52
2019-04-28T11:25:46.989Z,3.20
2019-04-28T11:26:52.044Z,3.00
2019-04-28T11:27:57.297Z,3.30
2019-04-28T11:29:02.406Z,3.08
2019-04-28T11:30:07.927Z,2.83
2019-04-28T11:31:12.947Z,2.72
2019-04-28T11:32:18.074Z,2.70
2019-04-28T11:33:40.569Z,3.05
2019-04-28T11:34:54.573Z,3.40
2019-04-28T11:35:59.898Z,4.53
2019-04-28T11:37:05.143Z,3.45
2019-04-28T11:38:10.311Z,3.40
2019-04-28T11:39:19.928Z,3.02
2019-04-28T11:40:25.432Z,2.92
2019-04-28T11:41:31.016Z,3.33
2019-04-28T11:42:35.969Z,2.80
2019-04-28T11:43:41.101Z,3.05
2019-04-28T11:44:46.305Z,2.95
2019-04-28T11:45:51.750Z,2.70
2019-04-28T11:46:56.867Z,3.10
2019-04-28T11:48:01.944Z,2.60
2019-04-28T11:49:07.023Z,2.70
2019-04-28T11:50:12.198Z,2.40
2019-04-28T11:51:17.474Z,2.12
2019-04-28T11:52:22.717Z,3.27
2019-04-28T11:53:28.101Z,2.65
2019-04-28T11:54:33.743Z,3.37
2019-04-28T11:55:38.794Z,2.83
2019-04-28T11:56:44.048Z,2.55
2019-04-28T11:57:49.509Z,2.52
2019-04-28T11:58:54.536Z,2.50
2019-04-28T11:59:59.862Z,1.95
2019-04-28T12:01:05.448Z,2.47
2019-04-28T12:02:10.593Z,2.70
2019-04-28T12:03:15.715Z,3.00
2019-04-28T12:04:20.936Z,2.92
2019-04-28T12:05:34.559Z,2.90
2019-04-28T12:06:37.387Z,2.83
2019-04-28T12:07:42.484Z,2.90
2019-04-28T12:08:49.163Z,3.20
2019-04-28T12:10:06.262Z,2.52
2019-04-28T12:11:24.362Z,2.45
2019-04-28T12:12:47.643Z,2.55
2019-04-28T12:14:15.066Z,2.42
2019-04-28T12:15:38.011Z,2.37
2019-04-28T12:17:00.755Z,2.40
2019-04-28T12:18:23.039Z,2.50
2019-04-28T12:19:33.965Z,2.40
2019-04-28T12:20:39.306Z,2.20
2019-04-28T12:21:44.319Z,2.30
2019-04-28T12:22:49.334Z,2.08
2019-04-28T12:23:54.518Z,2.10
2019-04-28T12:24:59.692Z,1.90
2019-04-28T12:26:04.898Z,2.10
2019-04-28T12:27:09.947Z,2.12
2019-04-28T12:28:15.183Z,1.80
2019-04-28T12:29:20.423Z,2.30
2019-04-28T12:30:25.587Z,2.27
2019-04-28T12:31:30.834Z,2.17
2019-04-28T12:32:35.848Z,2.00
2019-04-28T12:33:40.956Z,1.90
2019-04-28T12:34:46.294Z,1.75
2019-04-28T12:35:51.351Z,1.45
2019-04-28T12:36:56.594Z,1.60
2019-04-28T12:38:01.723Z,1.92
2019-04-28T12:39:08.223Z,1.60
2019-04-28T12:40:13.339Z,1.80
2019-04-28T12:41:18.460Z,1.50
2019-04-28T12:42:23.620Z,1.90
2019-04-28T12:43:29.033Z,1.40
2019-04-28T12:44:34.333Z,1.82
2019-04-28T12:45:39.206Z,1.85
2019-04-28T12:46:44.321Z,1.60
2019-04-28T12:47:49.515Z,2.00
2019-04-28T12:48:57.515Z,2.27
2019-04-28T12:50:14.668Z,2.22
2019-04-28T12:51:19.716Z,2.10
2019-04-28T12:52:24.753Z,2.00
2019-04-28T12:53:29.845Z,2.20
2019-04-28T12:54:36.507Z,4.15
2019-04-28T12:55:42.148Z,1.95
2019-04-28T12:56:47.445Z,2.90
2019-04-28T12:57:53.038Z,2.15
2019-04-28T12:59:03.418Z,2.50
2019-04-28T13:00:39.874Z,3.05
2019-04-28T13:01:51.986Z,3.02
2019-04-28T13:03:22.118Z,2.47
2019-04-28T13:04:31.860Z,2.52
2019-04-28T13:05:37.944Z,2.27
2019-04-28T13:06:44.586Z,2.55
2019-04-28T13:07:49.924Z,2.10
2019-04-28T13:08:54.906Z,1.80
2019-04-28T13:10:00.098Z,1.42
2019-04-28T13:11:05.218Z,1.70
2019-04-28T13:12:10.612Z,1.50
2019-04-28T13:13:15.836Z,1.65
2019-04-28T13:14:20.940Z,2.10
2019-04-28T13:15:26.114Z,2.02
2019-04-28T13:16:31.203Z,1.60
2019-04-28T13:17:36.338Z,2.10
2019-04-28T13:18:41.695Z,1.90
2019-04-28T13:19:46.991Z,1.75
2019-04-28T13:20:52.243Z,1.72
2019-04-28T13:22:00.464Z,2.05
2019-04-28T13:23:05.551Z,2.15
2019-04-28T13:24:10.583Z,1.82
2019-04-28T13:25:15.967Z,1.85
2019-04-28T13:26:21.217Z,1.82
2019-04-28T13:27:26.454Z,2.40
2019-04-28T13:28:33.372Z,2.15
2019-04-28T13:29:38.315Z,2.00
2019-04-28T13:30:45.352Z,2.08
2019-04-28T13:31:50.482Z,2.17
2019-04-28T13:32:55.586Z,2.10
2019-04-28T13:34:01.517Z,2.52
2019-04-28T13:35:07.132Z,2.00
2019-04-28T13:36:15.082Z,1.77
2019-04-28T13:37:19.911Z,1.80
2019-04-28T13:38:25.427Z,1.90
2019-04-28T13:39:35.794Z,1.77
2019-04-28T13:40:41.578Z,1.80
2019-04-28T13:41:46.851Z,1.37
2019-04-28T13:42:52.157Z,1.40
2019-04-28T13:44:04.594Z,1.50
2019-04-28T13:45:16.199Z,1.52
2019-04-28T13:46:24.645Z,1.50
2019-04-28T13:47:29.901Z,1.60
2019-04-28T13:48:35.503Z,1.60
2019-04-28T13:49:51.963Z,1.72
2019-04-28T13:50:57.448Z,1.50
2019-04-28T13:52:02.846Z,1.50
2019-04-28T13:53:08.433Z,1.70
2019-04-28T13:54:15.361Z,1.60
2019-04-28T13:55:57.759Z,1.42
2019-04-28T13:57:02.971Z,2.25
2019-04-28T13:58:08.107Z,1.90
2019-04-28T13:59:17.605Z,1.75
2019-04-28T14:00:29.487Z,2.17
2019-04-28T14:01:56.329Z,1.80
2019-04-28T14:03:13.616Z,1.90
2019-04-28T14:04:36.399Z,1.82
2019-04-28T14:05:51.886Z,2.02
2019-04-28T14:07:01.786Z,2.20
2019-04-28T14:08:06.941Z,2.42
2019-04-28T14:09:16.736Z,2.12
2019-04-28T14:10:21.892Z,2.10
2019-04-28T14:11:27.149Z,2.20
2019-04-28T14:12:32.499Z,2.40
2019-04-28T14:13:37.566Z,2.30
2019-04-28T14:14:42.654Z,2.37
2019-04-28T14:15:48.511Z,2.65
2019-04-28T14:16:53.696Z,2.08
2019-04-28T14:17:59.100Z,2.20
2019-04-28T14:19:04.403Z,2.17
2019-04-28T14:20:12.119Z,2.10
2019-04-28T14:21:17.321Z,2.17
2019-04-28T14:22:22.473Z,2.10
2019-04-28T14:23:27.927Z,2.42
2019-04-28T14:24:33.188Z,2.15
2019-04-28T14:25:38.241Z,2.47
2019-04-28T14:26:43.499Z,2.10
2019-04-28T14:27:49.044Z,1.87
2019-04-28T14:28:54.996Z,2.67
2019-04-28T14:30:00.178Z,2.30
2019-04-28T14:31:05.320Z,2.05
2019-04-28T14:32:10.408Z,2.12
2019-04-28T14:33:16.665Z,2.10
2019-04-28T14:34:22.063Z,1.95
2019-04-28T14:35:27.198Z,2.20
2019-04-28T14:36:41.791Z,1.92
2019-04-28T14:37:39.362Z,3.08
2019-04-28T14:38:44.431Z,2.62
2019-04-28T14:39:49.503Z,2.20
2019-04-28T14:40:54.682Z,2.25
2019-04-28T14:41:59.988Z,2.00
2019-04-28T14:43:05.552Z,2.00
2019-04-28T14:44:11.163Z,2.10
2019-04-28T14:45:16.558Z,2.33
2019-04-28T14:46:21.574Z,1.95
2019-04-28T14:47:26.673Z,1.80
2019-04-28T14:48:31.774Z,1.77
2019-04-28T14:49:37.085Z,1.77
2019-04-28T14:50:42.059Z,1.80
2019-04-28T14:51:47.126Z,1.77
2019-04-28T14:52:52.219Z,1.87
2019-04-28T14:53:57.157Z,1.90